Time;durP1;ratioP1;P1;durP2;ratioP2;P2;SDS_P1;SDS_P2;PMS_P1;PMS_P2;Temp;Humidity;BMP_temperature;BMP_pressure;BME280_temperature;BME280_humidity;BME280_pressure;Samples;Min_cycle;Max_cycle;Signal;HPM_P1;HPM_P2
2021/01/15 00:01:05;;;;;;;9.50;7.90;;;0.70;99.90;;;;;;6115901;23;20409;-88
2021/01/15 00:03:38;;;;;;;12.60;9.07;;;0.70;99.90;;;;;;6116084;23;20975;-88
2021/01/15 00:06:05;;;;;;;14.07;8.63;;;0.70;99.90;;;;;;6116379;23;20448;-88
2021/01/15 00:08:37;;;;;;;13.63;9.07;;;0.70;99.90;;;;;;6116391;23;20403;-89
2021/01/15 00:11:04;;;;;;;12.80;7.90;;;0.60;99.90;;;;;;6115141;23;20532;-89
2021/01/15 00:13:30;;;;;;;12.03;8.67;;;0.60;99.90;;;;;;6115308;23;20425;-89
2021/01/15 00:15:56;;;;;;;10.80;8.23;;;0.60;99.90;;;;;;6113356;23;20406;-88
2021/01/15 00:18:21;;;;;;;11.63;8.40;;;0.60;99.90;;;;;;6109083;23;20403;-89
2021/01/15 00:20:47;;;;;;;11.17;8.13;;;0.60;99.90;;;;;;6111421;23;20269;-89
2021/01/15 00:23:16;;;;;;;12.83;8.30;;;0.60;99.90;;;;;;6106150;23;20185;-89
2021/01/15 00:25:43;;;;;;;10.00;7.53;;;0.60;99.90;;;;;;6115218;23;20476;-88
2021/01/15 00:28:09;;;;;;;12.07;8.37;;;0.60;99.90;;;;;;6114667;23;20401;-88
2021/01/15 00:30:34;;;;;;;11.37;7.93;;;0.50;99.90;;;;;;6113969;23;20397;-88
2021/01/15 00:33:00;;;;;;;11.27;7.47;;;0.60;99.90;;;;;;6115789;23;20600;-88
2021/01/15 00:35:25;;;;;;;11.23;7.47;;;0.60;99.90;;;;;;6116678;23;20495;-89
2021/01/15 00:37:51;;;;;;;11.00;7.23;;;0.60;99.90;;;;;;6114496;23;20698;-89
2021/01/15 00:40:17;;;;;;;11.43;7.77;;;0.60;99.90;;;;;;6113658;23;20499;-89
2021/01/15 00:42:42;;;;;;;9.43;7.47;;;0.60;99.90;;;;;;6115163;23;20165;-88
2021/01/15 00:45:09;;;;;;;9.20;6.90;;;0.60;99.90;;;;;;6115193;23;20189;-88
2021/01/15 00:47:34;;;;;;;10.43;6.97;;;0.60;99.90;;;;;;6145078;23;20536;-88
2021/01/15 00:50:00;;;;;;;9.17;7.10;;;0.60;99.90;;;;;;6144612;23;20487;-89
2021/01/15 00:52:26;;;;;;;8.90;6.87;;;0.60;99.90;;;;;;6120100;23;20165;-88
2021/01/15 00:54:51;;;;;;;9.03;8.10;;;0.60;99.90;;;;;;6144774;23;20496;-88
2021/01/15 00:57:17;;;;;;;8.60;6.80;;;0.60;99.90;;;;;;6144938;23;20856;-87
2021/01/15 00:59:43;;;;;;;9.90;8.20;;;0.50;99.90;;;;;;6140923;23;20639;-88
2021/01/15 01:02:08;;;;;;;9.77;7.23;;;0.50;99.90;;;;;;6139387;23;20157;-87
2021/01/15 01:04:34;;;;;;;9.77;7.13;;;0.50;99.90;;;;;;6141334;23;20165;-89
2021/01/15 01:07:00;;;;;;;9.57;7.40;;;0.50;99.90;;;;;;6145645;23;20199;-88
2021/01/15 01:09:26;;;;;;;9.80;6.90;;;0.50;99.90;;;;;;6143798;23;20211;-89
2021/01/15 01:11:51;;;;;;;8.33;6.73;;;0.50;99.90;;;;;;6144905;23;20717;-88
2021/01/15 01:14:17;;;;;;;8.30;7.00;;;0.50;99.90;;;;;;6144254;23;20499;-88
2021/01/15 01:16:43;;;;;;;9.60;7.20;;;0.60;99.90;;;;;;6144670;23;20201;-88
2021/01/15 01:19:08;;;;;;;8.70;7.30;;;0.50;99.90;;;;;;6144147;23;20263;-88
2021/01/15 01:21:34;;;;;;;10.33;7.20;;;0.40;99.90;;;;;;6144358;23;20161;-89
2021/01/15 01:24:00;;;;;;;9.40;6.13;;;0.40;99.90;;;;;;6144103;23;20636;-89
2021/01/15 01:26:25;;;;;;;8.93;6.53;;;0.40;99.90;;;;;;6143781;23;20531;-88
2021/01/15 01:28:51;;;;;;;7.30;5.37;;;0.40;99.90;;;;;;6119168;23;20169;-89
2021/01/15 01:31:17;;;;;;;6.17;5.13;;;0.40;99.90;;;;;;6144621;23;20157;-89
2021/01/15 01:33:44;;;;;;;9.83;5.50;;;0.40;99.90;;;;;;6144739;23;20171;-89
2021/01/15 01:36:11;;;;;;;7.30;5.67;;;0.40;99.90;;;;;;6143830;23;20412;-89
2021/01/15 01:38:38;;;;;;;6.80;6.00;;;0.40;99.90;;;;;;6141713;23;20542;-88
2021/01/15 01:41:04;;;;;;;6.63;5.70;;;0.40;99.90;;;;;;6141330;23;20771;-88
2021/01/15 01:43:30;;;;;;;6.40;4.73;;;0.30;99.90;;;;;;6139160;23;20389;-88
2021/01/15 01:46:00;;;;;;;6.00;4.50;;;0.30;99.90;;;;;;6133857;23;20508;-88
2021/01/15 01:48:26;;;;;;;5.37;4.77;;;0.40;99.90;;;;;;6112419;23;20165;-89
2021/01/15 01:50:53;;;;;;;6.30;5.13;;;0.30;99.90;;;;;;6113545;23;20468;-87
2021/01/15 01:53:22;;;;;;;5.53;4.57;;;0.30;99.90;;;;;;6114776;23;20552;-88
2021/01/15 01:55:48;;;;;;;7.67;4.63;;;0.20;99.90;;;;;;6114383;23;20801;-88
2021/01/15 01:58:17;;;;;;;4.97;4.40;;;0.30;99.90;;;;;;6113379;23;20405;-88
2021/01/15 02:00:46;;;;;;;8.47;4.00;;;0.30;99.90;;;;;;6113787;23;20823;-88
2021/01/15 02:03:16;;;;;;;4.67;4.07;;;0.30;99.90;;;;;;6115070;23;20770;-88
2021/01/15 02:05:42;;;;;;;6.53;4.10;;;0.30;99.90;;;;;;6113209;23;20456;-87
2021/01/15 02:08:07;;;;;;;5.37;4.30;;;0.30;99.90;;;;;;6113854;23;20401;-87
2021/01/15 02:10:39;;;;;;;4.40;3.57;;;0.30;99.90;;;;;;6113966;23;20249;-88
2021/01/15 02:13:20;;;;;;;4.90;3.70;;;0.30;99.90;;;;;;6113650;23;20176;-88
2021/01/15 02:15:51;;;;;;;5.70;4.13;;;0.30;99.90;;;;;;6113868;23;20409;-88
2021/01/15 02:18:35;;;;;;;4.00;3.33;;;0.30;99.90;;;;;;6113763;23;20396;-89
2021/01/15 02:21:19;;;;;;;4.27;3.87;;;0.20;99.90;;;;;;6112755;23;20410;-89
2021/01/15 02:23:46;;;;;;;5.40;3.53;;;0.20;99.90;;;;;;6109757;23;20744;-89
2021/01/15 02:26:48;;;;;;;3.30;2.83;;;0.10;99.90;;;;;;6109521;23;21113;-90
2021/01/15 02:29:17;;;;;;;3.77;3.43;;;0.20;99.90;;;;;;6109898;23;20416;-89
2021/01/15 02:31:49;;;;;;;5.07;4.03;;;0.10;99.90;;;;;;6112433;23;20421;-89
2021/01/15 02:34:21;;;;;;;5.07;3.80;;;0.00;99.90;;;;;;6114135;23;20396;-90
2021/01/15 02:37:29;;;;;;;5.07;3.63;;;0.00;99.90;;;;;;6113314;23;20880;-87
2021/01/15 02:40:20;;;;;;;3.57;3.27;;;0.00;99.90;;;;;;6114096;23;20508;-88
2021/01/15 02:42:50;;;;;;;5.10;3.97;;;0.00;99.90;;;;;;6113656;23;20713;-88
2021/01/15 02:45:17;;;;;;;5.23;3.33;;;-0.10;99.90;;;;;;6114971;23;20441;-88
2021/01/15 02:47:52;;;;;;;3.87;3.20;;;0.00;99.90;;;;;;6141963;23;20416;-87
2021/01/15 02:50:23;;;;;;;4.47;3.37;;;0.00;99.90;;;;;;6143152;23;20409;-88
2021/01/15 02:52:50;;;;;;;4.90;3.23;;;0.00;99.90;;;;;;6143346;23;20503;-88
2021/01/15 02:55:16;;;;;;;7.80;3.50;;;-0.20;99.90;;;;;;6144224;23;20405;-88
2021/01/15 02:57:42;;;;;;;4.37;3.70;;;-0.20;99.90;;;;;;6143597;23;20901;-88
2021/01/15 03:00:12;;;;;;;5.07;3.37;;;-0.20;99.90;;;;;;6142944;23;20400;-88
2021/01/15 03:02:50;;;;;;;4.17;3.20;;;-0.20;99.90;;;;;;6143066;23;20736;-88
2021/01/15 03:05:28;;;;;;;5.13;2.80;;;-0.20;99.90;;;;;;6118041;23;20435;-88
2021/01/15 03:07:58;;;;;;;3.47;3.17;;;-0.20;99.90;;;;;;6139247;23;20451;-88
2021/01/15 03:10:25;;;;;;;4.00;3.00;;;-0.10;99.90;;;;;;6138442;23;20391;-87
2021/01/15 03:12:52;;;;;;;4.90;3.50;;;-0.30;99.90;;;;;;6117284;23;20515;-87
2021/01/15 03:15:20;;;;;;;4.60;3.20;;;-0.20;99.90;;;;;;6143538;23;20407;-85
2021/01/15 03:17:48;;;;;;;4.80;3.57;;;-0.30;99.90;;;;;;6143651;23;20399;-87
2021/01/15 03:20:14;;;;;;;4.43;3.10;;;-0.30;99.90;;;;;;6143866;23;20499;-88
2021/01/15 03:22:44;;;;;;;3.77;3.33;;;-0.40;99.90;;;;;;6143502;23;20403;-87
2021/01/15 03:25:11;;;;;;;3.90;3.50;;;-0.50;99.90;;;;;;6142171;23;21101;-87
2021/01/15 03:27:56;;;;;;;4.13;3.70;;;-0.60;99.90;;;;;;6143532;23;20510;-87
2021/01/15 03:30:29;;;;;;;3.83;3.47;;;-0.60;99.90;;;;;;6142730;23;20464;-88
2021/01/15 03:33:03;;;;;;;4.30;3.50;;;-0.60;99.90;;;;;;6143534;23;20404;-88
2021/01/15 03:35:30;;;;;;;4.17;2.97;;;-0.60;99.90;;;;;;6143529;23;20392;-87
2021/01/15 03:38:04;;;;;;;5.47;3.70;;;-0.70;99.90;;;;;;6144723;23;20397;-88
2021/01/15 03:40:38;;;;;;;4.73;2.60;;;-0.80;99.90;;;;;;6142846;23;20382;-87
2021/01/15 03:43:21;;;;;;;3.97;3.00;;;-0.70;99.90;;;;;;6144337;23;20403;-88
2021/01/15 03:45:48;;;;;;;4.13;3.17;;;-0.60;99.90;;;;;;6139668;23;20456;-88
2021/01/15 03:48:15;;;;;;;5.20;2.97;;;-0.70;99.90;;;;;;6115074;23;20982;-88
2021/01/15 03:50:41;;;;;;;5.00;3.20;;;-0.70;99.90;;;;;;6109887;23;20416;-88
2021/01/15 03:53:07;;;;;;;3.10;2.80;;;-0.70;99.90;;;;;;6109758;23;20425;-88
2021/01/15 03:55:33;;;;;;;3.63;3.33;;;-0.70;99.90;;;;;;6111925;23;20413;-88
2021/01/15 03:58:00;;;;;;;3.73;3.40;;;-0.70;99.90;;;;;;6113367;23;20289;-88
2021/01/15 04:00:26;;;;;;;3.85;2.80;;;-0.80;99.90;;;;;;6113291;23;20967;-88
2021/01/15 04:02:51;;;;;;;4.17;2.77;;;-0.80;99.90;;;;;;6114082;23;20481;-88
2021/01/15 04:05:17;;;;;;;5.10;3.07;;;-0.80;99.90;;;;;;6112715;23;20625;-89
2021/01/15 04:07:43;;;;;;;3.83;3.50;;;-0.80;99.90;;;;;;6114298;23;20174;-88
2021/01/15 04:10:12;;;;;;;3.47;2.60;;;-0.80;99.90;;;;;;6113569;23;20600;-88
2021/01/15 04:12:38;;;;;;;3.80;3.40;;;-0.80;99.90;;;;;;6115412;23;20389;-89
2021/01/15 04:15:08;;;;;;;4.30;2.80;;;-0.90;99.90;;;;;;6118389;23;20381;-88
2021/01/15 04:17:35;;;;;;;3.20;2.83;;;-1.00;99.90;;;;;;6115400;23;20398;-88
2021/01/15 04:20:01;;;;;;;4.33;2.93;;;-1.00;99.90;;;;;;6115382;23;20756;-88
2021/01/15 04:22:35;;;;;;;2.47;2.27;;;-1.00;99.90;;;;;;6114879;23;20404;-89
2021/01/15 04:25:02;;;;;;;2.80;2.60;;;-1.00;99.90;;;;;;6115039;23;20436;-88
2021/01/15 04:27:29;;;;;;;3.40;2.90;;;-1.00;99.90;;;;;;6115006;23;20394;-89
2021/01/15 04:29:55;;;;;;;3.30;3.00;;;-1.00;99.90;;;;;;6114672;23;20969;-89
2021/01/15 04:32:21;;;;;;;3.53;2.60;;;-1.10;99.90;;;;;;6111882;23;20401;-88
2021/01/15 04:34:46;;;;;;;3.33;2.33;;;-1.20;99.90;;;;;;6110555;23;20596;-88
2021/01/15 04:37:12;;;;;;;4.00;2.77;;;-1.20;99.90;;;;;;6112921;23;20405;-88
2021/01/15 04:39:38;;;;;;;3.50;2.80;;;-1.20;99.90;;;;;;6113546;23;20253;-89
2021/01/15 04:42:03;;;;;;;4.13;3.20;;;-1.30;99.90;;;;;;6113123;23;20196;-88
2021/01/15 04:44:30;;;;;;;3.97;2.97;;;-1.30;99.90;;;;;;6114806;23;20200;-88
2021/01/15 04:46:57;;;;;;;2.83;2.57;;;-1.30;99.90;;;;;;6114616;23;20208;-88
2021/01/15 04:49:26;;;;;;;4.40;3.10;;;-1.30;99.90;;;;;;6114088;23;20531;-88
2021/01/15 04:51:57;;;;;;;3.22;2.92;;;-1.30;99.90;;;;;;6114899;23;20166;-88
2021/01/15 04:54:37;;;;;;;3.80;3.10;;;-1.40;99.90;;;;;;6115564;23;20288;-89
2021/01/15 04:57:10;;;;;;;3.70;3.30;;;-1.40;99.90;;;;;;6115326;23;20409;-89
2021/01/15 04:59:55;;;;;;;5.60;2.90;;;-1.40;99.90;;;;;;6114693;23;20393;-89
2021/01/15 05:02:20;;;;;;;3.80;3.50;;;-1.40;99.90;;;;;;6114489;23;20402;-89
2021/01/15 05:04:46;;;;;;;4.07;3.33;;;-1.40;99.90;;;;;;6115546;23;20394;-89
2021/01/15 05:07:13;;;;;;;3.67;3.33;;;-1.40;99.90;;;;;;6114015;23;20547;-88
2021/01/15 05:09:43;;;;;;;3.40;2.97;;;-1.40;99.90;;;;;;6113795;23;20564;-88
2021/01/15 05:12:16;;;;;;;4.23;3.70;;;-1.50;99.90;;;;;;6116007;23;20793;-88
2021/01/15 05:14:43;;;;;;;5.60;3.20;;;-1.40;99.90;;;;;;6113142;23;21035;-88
2021/01/15 05:17:09;;;;;;;4.00;3.50;;;-1.50;99.90;;;;;;6110596;23;20458;-88
2021/01/15 05:19:41;;;;;;;3.73;3.40;;;-1.50;99.90;;;;;;6111129;23;20456;-87
2021/01/15 05:22:07;;;;;;;5.50;4.00;;;-1.40;99.90;;;;;;6113800;23;20463;-88
2021/01/15 05:24:34;;;;;;;4.55;3.63;;;-1.40;99.90;;;;;;6113111;23;20389;-88
2021/01/15 05:30:17;;;;;;;4.60;3.30;;;-1.40;99.90;;;;;;6115337;23;20447;-88
2021/01/15 05:32:47;;;;;;;4.20;3.30;;;-1.50;99.90;;;;;;6114325;23;20158;-87
2021/01/15 05:35:13;;;;;;;3.83;3.42;;;-1.50;99.90;;;;;;6112954;23;20848;-89
2021/01/15 05:37:39;;;;;;;3.60;3.13;;;-1.50;99.90;;;;;;6113680;23;20566;-88
2021/01/15 05:40:06;;;;;;;5.27;4.30;;;-1.60;99.90;;;;;;6112304;23;20509;-87
2021/01/15 05:43:05;;;;;;;4.07;3.63;;;-1.60;99.90;;;;;;6114897;23;20401;-88
2021/01/15 05:45:31;;;;;;;3.53;3.22;;;-1.70;99.90;;;;;;6035619;23;20445;-88
2021/01/15 05:47:58;;;;;;;5.60;3.70;;;-1.70;99.90;;;;;;6113613;23;20162;-88
2021/01/15 05:50:38;;;;;;;5.53;3.38;;;-1.70;99.90;;;;;;6113933;23;20405;-89
2021/01/15 05:53:04;;;;;;;5.40;3.83;;;-1.80;99.90;;;;;;6111882;23;20165;-89
2021/01/15 05:55:29;;;;;;;3.80;3.40;;;-1.80;99.90;;;;;;6113268;23;20291;-88
2021/01/15 05:57:55;;;;;;;4.40;3.67;;;-1.80;99.90;;;;;;6111162;23;20170;-88
2021/01/15 06:00:30;;;;;;;4.90;3.87;;;-1.80;99.90;;;;;;6108246;23;20166;-88
2021/01/15 06:02:56;;;;;;;5.38;4.00;;;-1.80;99.90;;;;;;6110847;23;20173;-88
2021/01/15 06:05:23;;;;;;;4.20;3.38;;;-1.70;99.90;;;;;;6113048;23;20189;-88
2021/01/15 06:07:59;;;;;;;3.92;3.33;;;-1.70;99.90;;;;;;6113814;23;20169;-87
2021/01/15 06:10:26;;;;;;;4.20;3.80;;;-1.80;99.90;;;;;;6112691;23;20160;-89
2021/01/15 06:12:53;;;;;;;3.97;3.05;;;-1.80;99.90;;;;;;6113336;23;20599;-87
2021/01/15 06:15:19;;;;;;;4.50;4.10;;;-1.90;99.90;;;;;;6112973;23;20234;-87
2021/01/15 06:17:52;;;;;;;5.70;4.00;;;-1.90;99.90;;;;;;6112260;23;20401;-87
2021/01/15 06:20:19;;;;;;;4.93;3.70;;;-1.90;99.90;;;;;;6113847;23;20157;-89
2021/01/15 06:22:54;;;;;;;4.18;3.60;;;-1.90;99.90;;;;;;6113397;23;20433;-89
2021/01/15 06:25:29;;;;;;;4.23;3.53;;;-2.00;99.90;;;;;;6114191;23;20279;-90
2021/01/15 06:27:58;;;;;;;6.80;4.22;;;-2.00;99.90;;;;;;6112232;23;20492;-88
2021/01/15 06:30:25;;;;;;;4.30;3.90;;;-2.10;99.90;;;;;;6109468;23;20169;-88
2021/01/15 06:32:52;;;;;;;5.20;3.70;;;-2.10;99.90;;;;;;6111054;23;20465;-88
2021/01/15 06:35:31;;;;;;;4.97;4.20;;;-2.10;99.90;;;;;;6112147;23;20161;-88
2021/01/15 06:37:59;;;;;;;5.97;4.07;;;-2.20;99.90;;;;;;6111589;23;20184;-89
2021/01/15 06:40:35;;;;;;;4.97;4.45;;;-2.30;99.90;;;;;;6110493;23;20162;-87
2021/01/15 06:43:04;;;;;;;7.78;4.47;;;-2.30;99.90;;;;;;6107884;23;20162;-87
2021/01/15 06:45:36;;;;;;;5.43;3.90;;;-2.30;99.90;;;;;;6109404;23;20273;-86
2021/01/15 06:48:12;;;;;;;5.47;4.00;;;-2.30;99.90;;;;;;6110495;23;20433;-87
2021/01/15 06:50:44;;;;;;;17.45;12.25;;;-2.30;99.90;;;;;;6111564;23;20232;-88
2021/01/15 06:53:30;;;;;;;20.73;16.35;;;-2.30;99.90;;;;;;6111576;23;20177;-88
2021/01/15 06:55:58;;;;;;;8.70;7.35;;;-2.30;99.90;;;;;;6114481;23;20174;-87
2021/01/15 06:58:37;;;;;;;5.50;4.88;;;-2.20;99.90;;;;;;6111896;23;20552;-88
2021/01/15 07:01:17;;;;;;;5.28;3.90;;;-2.20;99.90;;;;;;6111388;23;20443;-85
2021/01/15 07:04:01;;;;;;;5.57;3.60;;;-2.20;99.90;;;;;;6112760;23;20580;-88
2021/01/15 07:06:32;;;;;;;5.78;4.18;;;-2.30;99.90;;;;;;6111217;23;20223;-87
2021/01/15 07:09:00;;;;;;;7.43;4.55;;;-2.50;99.90;;;;;;6113067;23;20217;-87
2021/01/15 07:11:30;;;;;;;5.30;4.43;;;-2.40;99.90;;;;;;6112167;23;20232;-86
2021/01/15 07:13:58;;;;;;;5.15;4.43;;;-2.40;99.90;;;;;;6113469;23;20169;-86
2021/01/15 07:16:37;;;;;;;6.65;5.03;;;-2.40;99.90;;;;;;6116041;23;20196;-86
2021/01/15 07:19:06;;;;;;;6.10;4.82;;;-2.30;99.90;;;;;;6114799;23;20544;-88
2021/01/15 07:21:39;;;;;;;5.28;3.92;;;-2.30;99.90;;;;;;6113104;23;20192;-88
2021/01/15 07:24:09;;;;;;;4.85;4.35;;;-2.30;99.90;;;;;;6110014;23;20166;-87
2021/01/15 07:26:40;;;;;;;6.68;4.75;;;-2.20;99.90;;;;;;6109615;23;20199;-88
2021/01/15 07:29:15;;;;;;;7.80;5.00;;;-2.10;99.90;;;;;;6110902;23;20167;-87
2021/01/15 07:31:45;;;;;;;4.65;4.22;;;-2.10;99.90;;;;;;6113386;23;20164;-87
2021/01/15 07:34:17;;;;;;;6.80;4.65;;;-2.10;99.90;;;;;;6111201;23;20181;-88
2021/01/15 07:36:43;;;;;;;9.63;4.30;;;-2.10;99.90;;;;;;6113529;23;20169;-87
2021/01/15 07:39:14;;;;;;;4.97;4.30;;;-2.00;99.90;;;;;;6112357;23;20172;-86
2021/01/15 07:41:53;;;;;;;6.18;4.00;;;-1.90;99.90;;;;;;6113184;23;20195;-86
2021/01/15 07:44:22;;;;;;;5.65;4.20;;;-1.90;99.90;;;;;;6113434;23;20161;-87
2021/01/15 07:46:52;;;;;;;6.20;5.05;;;-1.80;99.90;;;;;;6114870;23;20707;-88
2021/01/15 07:49:19;;;;;;;6.00;4.60;;;-1.80;99.90;;;;;;6116164;23;20165;-91
2021/01/15 07:52:05;;;;;;;5.45;4.90;;;-1.80;99.90;;;;;;6115935;23;20170;-90
2021/01/15 07:54:46;;;;;;;5.97;4.35;;;-1.80;99.90;;;;;;6115758;23;20165;-89
2021/01/15 07:57:19;;;;;;;6.57;4.82;;;-1.70;99.90;;;;;;6116594;23;20170;-91
2021/01/15 07:59:45;;;;;;;6.60;4.65;;;-1.60;99.90;;;;;;6116078;23;20220;-91
2021/01/15 08:02:18;;;;;;;5.60;4.25;;;-1.50;99.90;;;;;;6116118;23;20201;-90
2021/01/15 08:04:44;;;;;;;6.68;5.35;;;-1.30;99.90;;;;;;6116034;23;20174;-87
2021/01/15 08:07:13;;;;;;;9.65;5.50;;;-1.30;99.90;;;;;;6112233;23;20280;-88
2021/01/15 08:09:42;;;;;;;8.45;5.45;;;-1.30;99.90;;;;;;6112457;23;20170;-87
2021/01/15 08:12:14;;;;;;;7.47;5.45;;;-1.40;99.90;;;;;;6114369;23;20176;-90
2021/01/15 08:14:40;;;;;;;6.95;4.80;;;-1.40;99.90;;;;;;6114834;23;20165;-91
2021/01/15 08:17:11;;;;;;;9.00;6.07;;;-1.50;99.90;;;;;;6113673;23;20166;-90
2021/01/15 08:19:41;;;;;;;7.23;5.10;;;-1.30;99.90;;;;;;6115810;23;20406;-90
2021/01/15 08:22:09;;;;;;;7.47;5.45;;;-1.20;99.90;;;;;;6115925;23;20398;-91
2021/01/15 08:24:45;;;;;;;7.00;5.43;;;-1.20;99.90;;;;;;6116846;23;20224;-89
2021/01/15 08:27:16;;;;;;;7.22;5.72;;;-1.00;99.90;;;;;;6116179;23;20201;-92
2021/01/15 08:29:42;;;;;;;7.10;4.97;;;-0.90;99.90;;;;;;6115159;23;20166;-90
2021/01/15 08:32:08;;;;;;;6.23;5.03;;;-0.80;99.90;;;;;;6115143;23;20429;-89
2021/01/15 08:34:36;;;;;;;8.43;5.43;;;-0.70;99.90;;;;;;6115635;23;20166;-88
2021/01/15 08:37:03;;;;;;;6.73;5.30;;;-0.60;99.90;;;;;;6115315;23;20529;-91
2021/01/15 08:39:45;;;;;;;9.70;5.50;;;-0.50;99.90;;;;;;6115113;23;20744;-90
2021/01/15 08:42:12;;;;;;;7.23;5.97;;;-0.40;99.90;;;;;;6115051;23;20402;-91
2021/01/15 08:44:38;;;;;;;7.67;5.73;;;-0.20;99.90;;;;;;6115154;23;20396;-91
2021/01/15 08:47:15;;;;;;;10.13;6.00;;;0.00;99.90;;;;;;6114367;23;20456;-90
2021/01/15 08:49:53;;;;;;;11.97;6.60;;;0.30;99.90;;;;;;6111006;23;20720;-90
2021/01/15 08:52:29;;;;;;;6.97;6.10;;;0.50;99.90;;;;;;6109583;23;20410;-89
2021/01/15 08:54:58;;;;;;;8.67;6.23;;;0.50;99.90;;;;;;6113213;23;20484;-88
2021/01/15 08:57:30;;;;;;;9.17;5.87;;;0.60;99.90;;;;;;6113372;23;20481;-93
2021/01/15 09:00:08;;;;;;;7.73;5.70;;;0.70;99.90;;;;;;6113549;23;20405;-92
2021/01/15 09:02:38;;;;;;;8.50;6.53;;;0.70;99.90;;;;;;6113240;23;20397;-88
2021/01/15 09:05:12;;;;;;;8.47;6.53;;;0.80;99.90;;;;;;6114515;23;20481;-91
2021/01/15 09:07:49;;;;;;;9.30;6.90;;;1.10;99.90;;;;;;6115028;23;20409;-90
2021/01/15 09:10:17;;;;;;;7.03;6.33;;;1.20;99.90;;;;;;6114844;23;20929;-90
2021/01/15 09:12:44;;;;;;;7.83;7.00;;;1.10;99.90;;;;;;6116091;23;20809;-88
2021/01/15 09:15:27;;;;;;;10.43;7.20;;;1.00;99.90;;;;;;6114834;23;20402;-89
2021/01/15 09:17:54;;;;;;;7.50;6.40;;;1.10;99.90;;;;;;6115033;23;20402;-88
2021/01/15 09:20:20;;;;;;;12.27;7.10;;;1.20;99.90;;;;;;6112243;23;20397;-89
2021/01/15 09:22:46;;;;;;;7.70;6.90;;;1.30;99.90;;;;;;6114658;23;20738;-88
2021/01/15 09:25:17;;;;;;;10.23;6.50;;;1.60;99.90;;;;;;6114441;23;20548;-89
2021/01/15 09:27:43;;;;;;;13.33;6.80;;;1.90;99.90;;;;;;6113323;23;20385;-89
2021/01/15 09:30:15;;;;;;;9.17;7.20;;;2.20;99.90;;;;;;6115109;23;20863;-87
2021/01/15 09:32:46;;;;;;;7.80;7.00;;;2.40;99.90;;;;;;6108917;23;20795;-89
2021/01/15 09:35:14;;;;;;;9.43;7.33;;;2.70;99.90;;;;;;6110950;23;20448;-88
2021/01/15 09:37:40;;;;;;;9.67;6.93;;;2.90;99.90;;;;;;6113615;23;20399;-87
2021/01/15 09:40:07;;;;;;;8.53;7.03;;;3.20;99.90;;;;;;6112586;23;20452;-87
2021/01/15 09:42:33;;;;;;;8.00;6.30;;;3.40;99.30;;;;;;6113045;23;20397;-87
2021/01/15 09:44:59;;;;;;;7.77;6.93;;;3.50;98.40;;;;;;6114201;23;20409;-93
2021/01/15 09:47:25;;;;;;;7.10;6.40;;;3.60;98.30;;;;;;6114248;23;20445;-89
2021/01/15 09:49:50;;;;;;;7.83;6.57;;;3.60;98.20;;;;;;6113575;23;20392;-89
2021/01/15 09:52:16;;;;;;;7.50;6.27;;;3.70;97.60;;;;;;6115220;23;20162;-88
2021/01/15 09:54:44;;;;;;;8.77;6.53;;;3.90;96.90;;;;;;6113781;23;20173;-87
2021/01/15 09:57:10;;;;;;;7.20;6.50;;;4.00;97.10;;;;;;6114429;23;20174;-88
2021/01/15 09:59:35;;;;;;;8.60;6.70;;;4.10;97.00;;;;;;6113679;23;20402;-88
2021/01/15 10:02:01;;;;;;;7.73;6.47;;;4.30;96.50;;;;;;6112891;23;20269;-86
2021/01/15 10:04:26;;;;;;;7.40;6.60;;;4.30;96.30;;;;;;6112514;23;20169;-85
2021/01/15 10:06:52;;;;;;;7.13;6.43;;;4.40;96.00;;;;;;6113071;23;20189;-83
2021/01/15 10:09:18;;;;;;;7.60;6.87;;;4.40;95.60;;;;;;6113035;23;20548;-86
2021/01/15 10:11:48;;;;;;;7.33;6.63;;;4.40;95.80;;;;;;6113599;23;20605;-87
2021/01/15 10:14:16;;;;;;;7.40;6.50;;;4.40;95.70;;;;;;6111457;23;20390;-88
2021/01/15 10:16:49;;;;;;;7.33;5.93;;;4.30;95.70;;;;;;6108883;23;20402;-89
2021/01/15 10:19:19;;;;;;;6.87;6.17;;;4.50;96.10;;;;;;6110192;23;21300;-86
2021/01/15 10:21:45;;;;;;;6.70;6.00;;;4.90;95.40;;;;;;6112370;23;20412;-86
2021/01/15 10:24:12;;;;;;;7.10;6.40;;;5.30;94.70;;;;;;6113480;23;20405;-87
2021/01/15 10:26:39;;;;;;;6.93;6.23;;;5.50;93.20;;;;;;6111691;23;20838;-85
2021/01/15 10:29:09;;;;;;;8.70;6.43;;;6.00;92.80;;;;;;6111961;23;20389;-86
2021/01/15 10:31:54;;;;;;;7.00;6.30;;;6.30;91.70;;;;;;6112357;23;20389;-85
2021/01/15 10:34:24;;;;;;;7.27;6.53;;;6.30;91.40;;;;;;6112691;23;20393;-84
2021/01/15 10:36:51;;;;;;;8.07;5.67;;;6.30;90.70;;;;;;6114378;23;20402;-85
2021/01/15 10:39:17;;;;;;;5.83;5.23;;;6.70;90.20;;;;;;6111859;23;20393;-84
2021/01/15 10:41:49;;;;;;;7.83;6.97;;;7.10;87.30;;;;;;6113026;23;20500;-85
2021/01/15 10:44:16;;;;;;;7.03;5.33;;;7.40;83.70;;;;;;6114079;23;20741;-85
2021/01/15 10:46:44;;;;;;;6.50;5.90;;;7.30;82.60;;;;;;6112917;23;20929;-84
2021/01/15 10:49:11;;;;;;;6.07;5.47;;;7.50;81.90;;;;;;6112800;23;20436;-83
2021/01/15 10:51:49;;;;;;;6.23;5.63;;;8.00;79.80;;;;;;6113497;23;20491;-85
2021/01/15 10:54:17;;;;;;;5.97;5.47;;;8.10;75.70;;;;;;6114049;23;20424;-87
2021/01/15 10:56:46;;;;;;;6.33;5.03;;;8.20;73.80;;;;;;6111010;23;20816;-83
2021/01/15 10:59:15;;;;;;;6.17;5.60;;;8.80;67.50;;;;;;6108148;23;20397;-82
2021/01/15 11:01:49;;;;;;;5.93;5.33;;;8.70;65.10;;;;;;6111374;23;20411;-87
2021/01/15 11:04:16;;;;;;;5.93;5.30;;;9.10;65.60;;;;;;6111696;23;20400;-85
2021/01/15 11:06:44;;;;;;;6.87;6.03;;;10.00;61.90;;;;;;6111977;23;20880;-86
2021/01/15 11:09:13;;;;;;;8.40;6.43;;;11.20;55.90;;;;;;6109759;23;20397;-87
2021/01/15 11:11:49;;;;;;;7.27;4.77;;;10.70;54.20;;;;;;6112652;23;20422;-87
2021/01/15 11:14:16;;;;;;;5.07;4.57;;;11.00;51.50;;;;;;6111633;23;20391;-88
2021/01/15 11:16:42;;;;;;;8.23;5.97;;;11.60;50.60;;;;;;6112873;23;20423;-88
2021/01/15 11:19:08;;;;;;;6.47;5.83;;;12.40;49.70;;;;;;6112197;23;20868;-88
2021/01/15 11:21:34;;;;;;;5.63;5.13;;;13.00;46.80;;;;;;6111468;23;20428;-89
2021/01/15 11:23:59;;;;;;;6.60;6.00;;;13.20;45.20;;;;;;6113101;23;20169;-87
2021/01/15 11:26:27;;;;;;;6.23;5.70;;;13.10;45.90;;;;;;6111893;23;20200;-87
2021/01/15 11:29:00;;;;;;;5.03;4.60;;;12.70;44.50;;;;;;6114697;23;20286;-89
2021/01/15 11:31:27;;;;;;;6.80;5.97;;;13.00;45.20;;;;;;6112928;23;20431;-87
2021/01/15 11:33:53;;;;;;;5.17;4.67;;;13.80;42.40;;;;;;6113946;23;20404;-86
2021/01/15 11:36:19;;;;;;;5.60;5.10;;;14.40;40.80;;;;;;6112186;23;20397;-89
2021/01/15 11:38:46;;;;;;;7.93;6.13;;;13.70;40.00;;;;;;6111052;23;20484;-87
2021/01/15 11:41:16;;;;;;;6.53;5.93;;;13.30;42.00;;;;;;6107696;23;20504;-87
2021/01/15 11:43:43;;;;;;;5.93;5.43;;;13.50;41.70;;;;;;6110249;23;20890;-87
2021/01/15 11:46:15;;;;;;;6.83;6.13;;;14.00;40.90;;;;;;6112464;23;20460;-87
2021/01/15 11:48:40;;;;;;;7.27;5.90;;;13.70;40.30;;;;;;6113352;23;20496;-88
2021/01/15 11:51:10;;;;;;;7.23;6.53;;;14.30;40.10;;;;;;6111286;23;20958;-90
2021/01/15 11:53:37;;;;;;;10.10;6.07;;;14.60;39.10;;;;;;6111542;23;20178;-87
2021/01/15 11:56:05;;;;;;;39.23;35.47;;;14.80;38.60;;;;;;6113134;23;20401;-86
2021/01/15 11:58:31;;;;;;;11.87;10.80;;;15.20;39.00;;;;;;6112550;23;20393;-87
2021/01/15 12:00:57;;;;;;;8.77;7.97;;;15.50;38.00;;;;;;6112213;23;20888;-87
2021/01/15 12:03:24;;;;;;;13.70;12.50;;;16.00;37.00;;;;;;6111777;23;20169;-87
2021/01/15 12:13:14;;;;;;;11.70;10.50;;;18.50;32.70;;;;;;6114602;23;20559;-90
2021/01/15 12:15:41;;;;;;;10.73;9.70;;;18.50;32.20;;;;;;6110707;23;20875;-89
2021/01/15 12:18:07;;;;;;;11.87;10.87;;;18.50;32.20;;;;;;6087624;23;21067;-91
2021/01/15 12:20:37;;;;;;;12.90;11.67;;;17.90;32.30;;;;;;6113274;23;20884;-90
2021/01/15 12:23:03;;;;;;;10.63;9.53;;;15.30;34.20;;;;;;6106702;23;20401;-92
2021/01/15 12:26:12;;;;;;;11.60;9.90;;;15.10;36.30;;;;;;6109352;23;20436;-92
2021/01/15 12:29:12;;;;;;;13.13;11.83;;;13.70;37.60;;;;;;6111564;23;20442;-91
2021/01/15 12:32:12;;;;;;;12.37;11.37;;;12.90;40.00;;;;;;6113042;23;20593;-90
2021/01/15 12:35:12;;;;;;;11.03;9.03;;;14.30;39.60;;;;;;6114278;23;20428;-91
2021/01/15 12:38:14;;;;;;;10.80;9.73;;;14.60;36.80;;;;;;6107886;23;20448;-89
2021/01/15 12:41:14;;;;;;;10.10;9.20;;;14.80;37.80;;;;;;6113437;23;20400;-93
2021/01/15 12:43:42;;;;;;;6.30;5.70;;;16.40;36.90;;;;;;6113603;23;20405;-93
2021/01/15 12:46:16;;;;;;;7.37;6.77;;;17.40;33.30;;;;;;6127420;23;20448;-94
2021/01/15 12:48:42;;;;;;;11.47;6.40;;;17.40;31.90;;;;;;6121383;23;20401;-90
2021/01/15 12:51:08;;;;;;;16.20;8.00;;;18.30;32.10;;;;;;6136729;23;20412;-90
2021/01/15 12:53:34;;;;;;;10.70;9.60;;;19.60;31.00;;;;;;6139320;23;20205;-94
2021/01/15 12:56:00;;;;;;;9.60;8.80;;;20.30;30.40;;;;;;6137581;23;20194;-93
2021/01/15 12:58:27;;;;;;;9.83;8.93;;;19.70;31.30;;;;;;6138923;23;20397;-92
2021/01/15 13:00:58;;;;;;;10.20;9.40;;;19.50;30.60;;;;;;6143849;23;20465;-95
2021/01/15 13:03:27;;;;;;;11.40;10.40;;;18.90;31.00;;;;;;6146380;23;20410;-95
2021/01/15 13:06:00;;;;;;;11.23;10.33;;;19.50;30.50;;;;;;6143733;23;20413;-95
2021/01/15 13:08:25;;;;;;;11.90;10.70;;;19.80;30.70;;;;;;6144253;23;20890;-95
2021/01/15 13:11:38;;;;;;;10.73;9.83;;;20.00;30.10;;;;;;6168247;23;20461;-96
2021/01/15 13:15:15;;;;;;;10.57;9.67;;;19.60;29.60;;;;;;6150088;23;20166;-96